createdAt,value
2018-10-07T00:01:16.656Z,98419.08
2018-10-07T00:03:51.204Z,98429.01
2018-10-07T00:06:25.844Z,98440.41
2018-10-07T00:09:00.353Z,98453.64
2018-10-07T00:11:34.949Z,98464.03
2018-10-07T00:14:09.412Z,98475.86
2018-10-07T00:16:44.112Z,98481.64
2018-10-07T00:19:18.790Z,98490.39
2018-10-07T00:21:53.388Z,98497.94
2018-10-07T00:24:27.904Z,98501.33
2018-10-07T00:27:02.553Z,98511.17
2018-10-07T00:29:37.125Z,98515.80
2018-10-07T00:32:13.784Z,98529.83
2018-10-07T00:34:48.308Z,98530.31
2018-10-07T00:37:23.443Z,98533.92
2018-10-07T00:39:58.376Z,98544.38
2018-10-07T00:42:33.229Z,98546.18
2018-10-07T00:45:07.832Z,98547.03
2018-10-07T00:47:42.465Z,98553.28
2018-10-07T00:50:17.129Z,98557.66
2018-10-07T00:52:51.628Z,98556.85
2018-10-07T00:55:26.593Z,98565.12
2018-10-07T00:58:01.195Z,98575.80
2018-10-07T01:00:35.701Z,98577.13
2018-10-07T01:03:10.404Z,98586.62
2018-10-07T01:05:45.275Z,98590.13
2018-10-07T01:08:20.003Z,98588.17
2018-10-07T01:10:54.636Z,98597.72
2018-10-07T01:13:29.376Z,98591.17
2018-10-07T01:16:04.038Z,98597.71
2018-10-07T01:18:38.829Z,98599.44
2018-10-07T01:21:13.462Z,98607.70
2018-10-07T01:23:48.004Z,98620.27
2018-10-07T01:26:22.588Z,98625.89
2018-10-07T01:28:57.064Z,98626.92
2018-10-07T01:31:31.853Z,98628.69
2018-10-07T01:34:06.570Z,98637.39
2018-10-07T01:36:41.573Z,98637.59
2018-10-07T01:39:16.090Z,98650.45
2018-10-07T01:41:50.862Z,98659.45
2018-10-07T01:44:25.597Z,98659.23
2018-10-07T01:47:00.181Z,98653.19
2018-10-07T01:49:34.925Z,98660.77
2018-10-07T01:52:09.870Z,98663.03
2018-10-07T01:54:44.409Z,98663.84
2018-10-07T01:57:19.738Z,98657.80
2018-10-07T01:59:54.401Z,98662.13
2018-10-07T02:02:29.037Z,98661.02
2018-10-07T02:05:03.752Z,98658.13
2018-10-07T02:07:38.454Z,98655.98
2018-10-07T02:10:13.019Z,98653.59
2018-10-07T02:12:47.644Z,98641.53
2018-10-07T02:15:23.484Z,98642.38
2018-10-07T02:18:06.155Z,98637.22
2018-10-07T02:20:48.172Z,98636.35
2018-10-07T02:23:22.688Z,98632.93
2018-10-07T02:25:57.300Z,98625.77
2018-10-07T02:28:32.039Z,98613.69
2018-10-07T02:31:06.832Z,98615.27
2018-10-07T02:33:41.383Z,98613.80
2018-10-07T02:36:15.986Z,98607.30
2018-10-07T02:38:50.616Z,98601.73
2018-10-07T02:41:25.104Z,98593.55
2018-10-07T02:43:59.592Z,98598.53
2018-10-07T02:46:43.847Z,98592.66
2018-10-07T02:49:18.235Z,98584.02
2018-10-07T02:51:52.585Z,98579.22
2018-10-07T02:54:27.288Z,98591.09
2018-10-07T02:57:01.698Z,98589.72
2018-10-07T02:59:36.133Z,98590.28
2018-10-07T03:02:10.640Z,98598.59
2018-10-07T03:04:45.124Z,98600.88
2018-10-07T03:07:19.613Z,98596.08
2018-10-07T03:09:53.940Z,98597.45
2018-10-07T03:12:28.329Z,98590.37
2018-10-07T03:15:03.281Z,98594.61
2018-10-07T03:17:38.009Z,98591.41
2018-10-07T03:20:12.525Z,98603.70
2018-10-07T03:22:47.136Z,98595.41
2018-10-07T03:25:21.713Z,98620.45
2018-10-07T03:27:56.308Z,98625.27
2018-10-07T03:30:30.912Z,98632.19
2018-10-07T03:33:05.459Z,98642.55
2018-10-07T03:35:40.137Z,98644.05
2018-10-07T03:38:15.049Z,98649.98
2018-10-07T03:40:50.078Z,98654.55
2018-10-07T03:43:24.660Z,98657.59
2018-10-07T03:45:59.392Z,98657.73
2018-10-07T03:48:34.125Z,98655.34
2018-10-07T03:51:08.787Z,98659.44
2018-10-07T03:53:43.401Z,98661.13
2018-10-07T03:56:17.896Z,98664.78
2018-10-07T03:58:52.648Z,98674.23
2018-10-07T04:01:27.244Z,98673.78
2018-10-07T04:04:02.226Z,98686.09
2018-10-07T04:06:36.773Z,98698.52
2018-10-07T04:09:12.446Z,98702.39
2018-10-07T04:11:47.084Z,98708.98
2018-10-07T04:14:21.977Z,98712.98
2018-10-07T04:16:56.677Z,98697.23
2018-10-07T04:19:31.238Z,98709.11
2018-10-07T04:22:05.669Z,98711.38
2018-10-07T04:24:40.192Z,98721.13
2018-10-07T04:27:15.089Z,98724.66
2018-10-07T04:29:50.011Z,98719.89
2018-10-07T04:32:24.599Z,98717.47
2018-10-07T04:34:59.088Z,98726.45
2018-10-07T04:37:33.829Z,98732.84
2018-10-07T04:40:08.406Z,98751.14
2018-10-07T04:42:42.893Z,98755.31
2018-10-07T04:45:17.589Z,98758.17
2018-10-07T04:47:52.477Z,98775.41
2018-10-07T04:50:26.860Z,98770.40
2018-10-07T04:53:01.282Z,98781.70
2018-10-07T04:55:35.824Z,98786.94
2018-10-07T04:58:21.022Z,98790.80
2018-10-07T05:00:55.602Z,98791.89
2018-10-07T05:03:30.076Z,98806.90
2018-10-07T05:06:04.743Z,98806.23
2018-10-07T05:08:39.753Z,98813.29
2018-10-07T05:11:14.131Z,98812.98
2018-10-07T05:13:54.216Z,98831.06
2018-10-07T05:16:34.262Z,98844.77
2018-10-07T05:19:08.768Z,98846.91
2018-10-07T05:21:43.288Z,98853.30
2018-10-07T05:24:18.178Z,98856.73
2018-10-07T05:26:52.653Z,98861.31
2018-10-07T05:29:27.200Z,98867.45
2018-10-07T05:32:01.743Z,98877.19
2018-10-07T05:34:36.398Z,98869.58
2018-10-07T05:37:10.861Z,98883.59
2018-10-07T05:39:45.508Z,98893.81
2018-10-07T05:42:20.126Z,98897.05
2018-10-07T05:44:54.730Z,98905.40
2018-10-07T05:47:29.384Z,98896.61
2018-10-07T05:50:04.141Z,98895.89
2018-10-07T05:52:38.663Z,98898.28
2018-10-07T05:55:13.339Z,98893.48
2018-10-07T05:57:48.193Z,98900.28
2018-10-07T06:00:22.681Z,98901.56
2018-10-07T06:03:04.291Z,98919.47
2018-10-07T06:05:39.140Z,98921.85
2018-10-07T06:11:12.807Z,98957.91
2018-10-07T06:13:47.510Z,98966.03
2018-10-07T06:16:21.971Z,98974.37
2018-10-07T06:18:56.592Z,98977.75
2018-10-07T06:21:31.291Z,98983.19
2018-10-07T06:24:05.857Z,98995.99
2018-10-07T06:26:40.926Z,98993.57
2018-10-07T06:29:15.563Z,98992.03
2018-10-07T06:31:50.463Z,98986.30
2018-10-07T06:34:25.059Z,98989.73
2018-10-07T06:36:59.642Z,99003.42
2018-10-07T06:39:34.114Z,99013.59
2018-10-07T06:42:08.734Z,99022.23
2018-10-07T06:44:43.355Z,99027.92
2018-10-07T06:47:17.969Z,99041.77
2018-10-07T06:49:52.488Z,99050.31
2018-10-07T06:52:27.216Z,99061.77
2018-10-07T06:55:01.601Z,99062.63
2018-10-07T06:57:36.192Z,99073.97
2018-10-07T07:00:10.843Z,99075.05
2018-10-07T07:02:45.271Z,99082.09
2018-10-07T07:05:19.862Z,99090.77
2018-10-07T07:07:54.487Z,99096.01
2018-10-07T07:10:28.952Z,99106.61
2018-10-07T07:13:03.487Z,99107.95
2018-10-07T07:15:38.149Z,99120.36
2018-10-07T07:18:12.764Z,99128.84
2018-10-07T07:20:47.312Z,99134.48
2018-10-07T07:23:21.871Z,99146.02
2018-10-07T07:25:56.694Z,99159.38
2018-10-07T07:28:31.829Z,99169.62
2018-10-07T07:31:06.621Z,99167.79
2018-10-07T07:33:41.445Z,99180.83
2018-10-07T07:36:16.016Z,99176.35
2018-10-07T07:38:50.480Z,99185.83
2018-10-07T07:41:24.842Z,99190.40
2018-10-07T07:43:59.505Z,99194.98
2018-10-07T07:46:34.032Z,99194.72
2018-10-07T07:49:08.989Z,99191.37
2018-10-07T07:51:43.710Z,99197.00
2018-10-07T07:54:18.189Z,99196.08
2018-10-07T07:56:52.585Z,99206.31
2018-10-07T07:59:27.319Z,99197.17
2018-10-07T08:02:02.132Z,99196.50
2018-10-07T08:04:37.436Z,99203.55
2018-10-07T08:07:12.263Z,99197.20
2018-10-07T08:09:47.005Z,99192.61
2018-10-07T08:12:21.656Z,99191.12
2018-10-07T08:14:56.251Z,99207.94
2018-10-07T08:17:30.941Z,99201.44
2018-10-07T08:20:05.403Z,99201.14
2018-10-07T08:22:40.034Z,99203.86
2018-10-07T08:25:15.075Z,99201.08
2018-10-07T08:27:50.767Z,99192.22
2018-10-07T08:30:25.488Z,99199.23
2018-10-07T08:33:00.047Z,99194.09
2018-10-07T08:35:34.653Z,99198.30
2018-10-07T08:38:10.015Z,99194.63
2018-10-07T08:40:44.451Z,99201.45
2018-10-07T08:43:20.088Z,99202.83
2018-10-07T08:45:54.584Z,99216.44
2018-10-07T08:51:28.293Z,99220.02
2018-10-07T08:54:02.954Z,99227.12
2018-10-07T08:56:39.431Z,99234.28
2018-10-07T08:59:14.362Z,99234.50
2018-10-07T09:01:48.740Z,99233.09
2018-10-07T09:04:23.327Z,99236.58
2018-10-07T09:06:57.956Z,99226.08
2018-10-07T09:09:32.458Z,99227.11
2018-10-07T09:12:07.305Z,99232.91
2018-10-07T09:14:42.234Z,99234.23
2018-10-07T09:17:17.829Z,99238.69
2018-10-07T09:19:53.081Z,99245.31
2018-10-07T09:22:27.840Z,99241.61
2018-10-07T09:25:02.334Z,99246.70
2018-10-07T09:27:38.330Z,99261.53
2018-10-07T09:30:12.984Z,99270.13
2018-10-07T09:32:47.859Z,99267.80
2018-10-07T09:35:22.660Z,99272.38
2018-10-07T09:37:57.208Z,99278.61
2018-10-07T09:40:31.748Z,99272.02
2018-10-07T09:43:06.529Z,99272.02
2018-10-07T09:45:41.136Z,99282.13
2018-10-07T09:48:15.825Z,99285.06
2018-10-07T09:50:50.510Z,99281.92
2018-10-07T09:53:25.090Z,99282.67
2018-10-07T09:55:59.651Z,99289.67
2018-10-07T09:58:34.364Z,99300.04
2018-10-07T10:01:09.068Z,99289.80
2018-10-07T10:03:43.456Z,99285.89
2018-10-07T10:06:18.473Z,99274.71
2018-10-07T10:08:52.982Z,99282.17
2018-10-07T10:11:27.610Z,99287.83
2018-10-07T10:14:03.201Z,99281.50
2018-10-07T10:16:42.280Z,99272.67
2018-10-07T10:20:22.148Z,99284.64
2018-10-07T10:23:00.956Z,99275.58
2018-10-07T10:25:45.444Z,99280.56
2018-10-07T10:28:40.724Z,99288.92
2018-10-07T10:31:51.369Z,99298.96
2018-10-07T10:34:42.267Z,99308.52
2018-10-07T10:37:20.882Z,99298.39
2018-10-07T10:39:56.936Z,99293.91
2018-10-07T10:42:40.035Z,99307.63
2018-10-07T10:45:23.247Z,99308.45
2018-10-07T10:48:01.394Z,99307.24
2018-10-07T10:50:44.287Z,99303.61
2018-10-07T10:53:23.692Z,99309.50
2018-10-07T10:56:23.129Z,99303.29
2018-10-07T10:59:09.320Z,99307.56
2018-10-07T11:04:03.160Z,99317.69
2018-10-07T11:06:55.805Z,99325.83
2018-10-07T11:09:44.544Z,99314.53
2018-10-07T11:13:28.605Z,99314.25
2018-10-07T11:16:16.128Z,99325.07
2018-10-07T11:18:54.281Z,99333.25
2018-10-07T11:21:43.747Z,99344.17
2018-10-07T11:24:22.394Z,99338.87
2018-10-07T11:27:05.034Z,99345.05
2018-10-07T11:30:21.515Z,99345.45
2018-10-07T11:33:08.096Z,99353.19
2018-10-07T11:35:59.535Z,99358.46
2018-10-07T11:38:52.597Z,99351.66
2018-10-07T11:41:28.765Z,99356.33
2018-10-07T11:44:16.479Z,99350.63
2018-10-07T11:47:01.962Z,99345.86
2018-10-07T11:49:43.920Z,99344.84
2018-10-07T11:53:07.177Z,99337.36
2018-10-07T11:55:41.579Z,99337.23
2018-10-07T11:58:16.061Z,99328.69
2018-10-07T12:00:50.360Z,99326.18
2018-10-07T12:03:24.735Z,99336.55
2018-10-07T12:05:59.133Z,99329.71
2018-10-07T12:08:33.495Z,99336.16
2018-10-07T12:11:07.915Z,99332.08
2018-10-07T12:13:42.455Z,99331.91
2018-10-07T12:16:17.113Z,99338.50
2018-10-07T12:18:51.647Z,99331.42
2018-10-07T12:21:26.006Z,99329.75
2018-10-07T12:24:06.459Z,99322.49
2018-10-07T12:26:40.835Z,99319.19
2018-10-07T12:29:15.276Z,99319.52
2018-10-07T12:31:49.753Z,99314.50
2018-10-07T12:34:24.112Z,99325.59
2018-10-07T12:36:58.774Z,99330.20
2018-10-07T12:39:36.445Z,99336.49
2018-10-07T12:45:10.693Z,99338.77
2018-10-07T12:47:45.332Z,99333.86
2018-10-07T12:50:19.532Z,99345.31
2018-10-07T12:52:54.347Z,99343.95
2018-10-07T12:55:28.563Z,99348.05
2018-10-07T12:58:03.223Z,99345.55
2018-10-07T13:00:37.648Z,99334.56
2018-10-07T13:03:11.929Z,99331.36
2018-10-07T13:05:46.467Z,99321.17
2018-10-07T13:08:20.896Z,99318.48
2018-10-07T13:10:55.176Z,99316.38
2018-10-07T13:13:29.512Z,99327.11
2018-10-07T13:16:03.865Z,99343.63
2018-10-07T13:18:38.823Z,99352.20
2018-10-07T13:21:13.688Z,99354.66
2018-10-07T13:23:48.292Z,99346.52
2018-10-07T13:26:22.972Z,99348.06
2018-10-07T13:31:55.723Z,99358.48
2018-10-07T13:34:30.255Z,99352.63
2018-10-07T13:37:05.145Z,99357.78
2018-10-07T13:39:39.523Z,99356.92
2018-10-07T13:42:13.966Z,99370.61
2018-10-07T13:44:49.997Z,99367.83
2018-10-07T13:47:24.601Z,99365.47
2018-10-07T13:52:59.007Z,99369.96
2018-10-07T13:55:33.619Z,99362.31
2018-10-07T13:58:08.152Z,99365.19
2018-10-07T14:00:42.778Z,99370.25
2018-10-07T14:03:17.712Z,99374.77
2018-10-07T14:05:52.212Z,99370.41
2018-10-07T14:08:26.684Z,99366.80
2018-10-07T14:11:01.380Z,99375.16
2018-10-07T14:13:35.931Z,99378.49
2018-10-07T14:16:10.350Z,99374.15
2018-10-07T14:18:44.873Z,99379.00
2018-10-07T14:21:19.604Z,99374.09
2018-10-07T14:23:54.249Z,99381.10
2018-10-07T14:26:28.688Z,99387.29
2018-10-07T14:29:03.233Z,99389.45
2018-10-07T14:31:37.637Z,99384.91
2018-10-07T14:34:12.281Z,99383.41
2018-10-07T14:36:46.815Z,99387.18
2018-10-07T14:39:21.375Z,99392.00
2018-10-07T14:41:56.283Z,99393.47
2018-10-07T14:44:30.862Z,99388.89
2018-10-07T14:47:05.551Z,99395.68
2018-10-07T14:49:40.066Z,99398.23
2018-10-07T14:52:15.203Z,99402.58
2018-10-07T14:54:49.833Z,99400.03
2018-10-07T14:57:24.301Z,99396.97
2018-10-07T14:59:58.812Z,99396.66
2018-10-07T15:02:33.490Z,99398.41
2018-10-07T15:05:08.076Z,99404.25
2018-10-07T15:07:42.876Z,99402.31
2018-10-07T15:10:17.501Z,99399.09
2018-10-07T15:12:52.095Z,99396.78
2018-10-07T15:15:26.581Z,99398.20
2018-10-07T15:18:01.128Z,99400.70
2018-10-07T15:20:35.820Z,99410.70
2018-10-07T15:23:10.600Z,99409.09
2018-10-07T15:25:45.253Z,99408.14
2018-10-07T15:28:21.251Z,99406.77
2018-10-07T15:30:57.047Z,99405.97
2018-10-07T15:33:31.681Z,99395.17
2018-10-07T15:36:06.329Z,99397.28
2018-10-07T15:38:41.197Z,99402.09
2018-10-07T15:41:16.085Z,99410.61
2018-10-07T15:43:50.565Z,99417.05
2018-10-07T15:46:25.112Z,99418.69
2018-10-07T15:48:59.599Z,99417.08
2018-10-07T15:51:34.060Z,99414.60
2018-10-07T15:54:08.548Z,99409.70
2018-10-07T15:56:43.264Z,99417.35
2018-10-07T15:59:17.841Z,99418.48
2018-10-07T16:01:52.513Z,99423.14
2018-10-07T16:04:27.112Z,99423.57
2018-10-07T16:07:01.565Z,99416.37
2018-10-07T16:09:35.972Z,99430.35
2018-10-07T16:12:10.415Z,99418.83
2018-10-07T16:14:44.803Z,99415.38
2018-10-07T16:17:19.343Z,99415.13
2018-10-07T16:19:53.956Z,99426.94
2018-10-07T16:22:28.654Z,99428.45
2018-10-07T16:25:03.599Z,99424.73
2018-10-07T16:27:45.363Z,99430.25
2018-10-07T16:30:20.073Z,99441.88
2018-10-07T16:32:54.734Z,99438.98
2018-10-07T16:35:36.799Z,99445.81
2018-10-07T16:38:11.511Z,99447.20
2018-10-07T16:40:46.024Z,99447.27
2018-10-07T16:43:20.492Z,99451.19
2018-10-07T16:45:55.171Z,99448.19
2018-10-07T16:48:29.579Z,99450.89
2018-10-07T16:51:04.551Z,99445.05
2018-10-07T16:53:39.430Z,99449.56
2018-10-07T16:56:14.040Z,99455.64
2018-10-07T16:58:48.452Z,99459.37
2018-10-07T17:01:23.228Z,99465.66
2018-10-07T17:03:57.606Z,99468.69
2018-10-07T17:06:32.252Z,99470.38
2018-10-07T17:09:08.122Z,99475.83
2018-10-07T17:11:42.566Z,99479.57
2018-10-07T17:14:17.044Z,99482.86
2018-10-07T17:16:51.656Z,99478.77
2018-10-07T17:19:26.438Z,99488.37
2018-10-07T17:22:01.032Z,99484.46
2018-10-07T17:24:35.582Z,99484.45
2018-10-07T17:27:10.323Z,99496.98
2018-10-07T17:29:44.824Z,99485.38
2018-10-07T17:32:19.305Z,99487.66
2018-10-07T17:34:53.971Z,99482.00
2018-10-07T17:37:28.421Z,99494.75
2018-10-07T17:40:03.154Z,99498.64
2018-10-07T17:42:38.008Z,99498.25
2018-10-07T17:45:12.542Z,99502.08
2018-10-07T17:47:47.027Z,99492.98
2018-10-07T17:50:21.727Z,99503.31
2018-10-07T17:52:56.213Z,99514.25
2018-10-07T17:55:31.003Z,99509.11
2018-10-07T17:58:05.556Z,99512.73
2018-10-07T18:00:40.172Z,99513.71
2018-10-07T18:03:15.020Z,99515.58
2018-10-07T18:05:49.777Z,99510.28
2018-10-07T18:08:24.378Z,99523.03
2018-10-07T18:10:58.976Z,99523.40
2018-10-07T18:13:33.489Z,99530.59
2018-10-07T18:16:08.133Z,99528.82
2018-10-07T18:18:55.289Z,99533.15
2018-10-07T18:21:29.695Z,99536.39
2018-10-07T18:24:04.265Z,99540.62
2018-10-07T18:26:38.812Z,99538.28
2018-10-07T18:29:13.305Z,99527.80
2018-10-07T18:31:47.960Z,99540.66
2018-10-07T18:34:22.711Z,99544.06
2018-10-07T18:36:57.112Z,99550.48
2018-10-07T18:39:31.532Z,99549.12
2018-10-07T18:42:06.063Z,99554.97
2018-10-07T18:44:41.071Z,99547.29
2018-10-07T18:47:15.472Z,99559.22
2018-10-07T18:49:49.893Z,99560.80
2018-10-07T18:52:24.929Z,99560.67
2018-10-07T18:54:59.523Z,99566.41
2018-10-07T18:57:34.397Z,99571.63
2018-10-07T19:00:10.302Z,99572.73
2018-10-07T19:02:44.841Z,99577.91
2018-10-07T19:05:19.361Z,99572.22
2018-10-07T19:07:54.068Z,99580.76
2018-10-07T19:10:28.655Z,99561.77
2018-10-07T19:13:03.016Z,99572.46
2018-10-07T19:15:37.440Z,99568.13
2018-10-07T19:18:12.096Z,99565.96
2018-10-07T19:20:46.706Z,99565.41
2018-10-07T19:23:21.232Z,99568.38
2018-10-07T19:25:55.845Z,99574.08
2018-10-07T19:28:30.753Z,99567.48
2018-10-07T19:31:05.346Z,99574.33
2018-10-07T19:33:39.863Z,99569.53
2018-10-07T19:36:14.401Z,99568.83
2018-10-07T19:45:00.763Z,99576.94
2018-10-07T19:47:35.447Z,99572.47
2018-10-07T19:50:10.190Z,99575.45
2018-10-07T19:52:44.781Z,99570.52
2018-10-07T19:55:19.535Z,99568.94
2018-10-07T19:57:53.935Z,99570.73
2018-10-07T20:00:28.416Z,99575.77
2018-10-07T20:03:02.896Z,99577.82
2018-10-07T20:05:37.729Z,99576.13
2018-10-07T20:08:12.389Z,99566.09
2018-10-07T20:10:46.845Z,99560.33
2018-10-07T20:13:21.292Z,99561.09
2018-10-07T20:15:56.260Z,99560.92
2018-10-07T20:18:30.934Z,99551.03
2018-10-07T20:21:06.522Z,99549.41
2018-10-07T20:23:41.300Z,99552.67
2018-10-07T20:26:16.008Z,99551.87
2018-10-07T20:28:50.545Z,99554.34
2018-10-07T20:31:25.271Z,99560.03
2018-10-07T20:33:59.952Z,99555.19
2018-10-07T20:36:35.440Z,99556.88
2018-10-07T20:39:12.058Z,99561.03
2018-10-07T20:41:46.790Z,99562.98
2018-10-07T20:47:27.644Z,99567.20
2018-10-07T20:50:02.093Z,99569.59
2018-10-07T20:52:37.033Z,99568.31
2018-10-07T20:55:11.423Z,99565.59
2018-10-07T20:57:46.035Z,99564.83
2018-10-07T21:00:20.534Z,99554.33
2018-10-07T21:02:55.131Z,99551.28
2018-10-07T21:05:29.757Z,99562.48
2018-10-07T21:08:27.296Z,99559.50
2018-10-07T21:11:01.841Z,99555.61
2018-10-07T21:13:36.705Z,99553.70
2018-10-07T21:16:11.259Z,99557.23
2018-10-07T21:18:45.894Z,99556.94
2018-10-07T21:21:20.860Z,99552.31
2018-10-07T21:23:55.484Z,99549.92
2018-10-07T21:26:30.112Z,99558.08
2018-10-07T21:29:04.798Z,99557.56
2018-10-07T21:31:39.388Z,99553.11
2018-10-07T21:34:13.868Z,99555.64
2018-10-07T21:36:48.863Z,99552.16
2018-10-07T21:39:23.767Z,99551.67
2018-10-07T21:41:59.172Z,99551.52
2018-10-07T21:44:33.621Z,99545.51
2018-10-07T21:47:08.064Z,99539.46
2018-10-07T21:49:42.902Z,99542.47
2018-10-07T21:52:17.643Z,99548.22
2018-10-07T21:54:52.517Z,99540.81
2018-10-07T21:57:26.939Z,99544.05
2018-10-07T22:00:02.236Z,99544.52
2018-10-07T22:02:36.628Z,99550.55
2018-10-07T22:05:11.348Z,99551.52
2018-10-07T22:07:45.853Z,99551.74
2018-10-07T22:10:20.799Z,99547.38
2018-10-07T22:12:55.472Z,99547.86
2018-10-07T22:15:29.956Z,99545.98
2018-10-07T22:18:04.860Z,99549.35
2018-10-07T22:20:39.506Z,99552.09
2018-10-07T22:23:14.372Z,99547.45
2018-10-07T22:25:49.112Z,99542.56
2018-10-07T22:28:23.876Z,99545.73
2018-10-07T22:30:58.832Z,99539.50
2018-10-07T22:33:33.453Z,99542.69
2018-10-07T22:36:08.491Z,99539.46
2018-10-07T22:38:43.318Z,99539.81
2018-10-07T22:41:18.234Z,99536.66
2018-10-07T22:43:52.816Z,99530.13
2018-10-07T22:46:27.270Z,99539.98
2018-10-07T22:49:02.285Z,99539.66
2018-10-07T22:51:36.992Z,99537.27
2018-10-07T22:54:11.699Z,99541.69
2018-10-07T22:56:46.202Z,99536.10
2018-10-07T22:59:20.772Z,99534.42
2018-10-07T23:01:55.529Z,99537.98
2018-10-07T23:04:30.224Z,99544.50
2018-10-07T23:07:04.759Z,99539.13
2018-10-07T23:09:39.390Z,99544.67
2018-10-07T23:12:14.184Z,99544.95
2018-10-07T23:14:48.856Z,99552.26
2018-10-07T23:17:23.456Z,99547.98
2018-10-07T23:19:58.072Z,99556.20
2018-10-07T23:22:32.888Z,99555.73
2018-10-07T23:25:07.376Z,99554.92
2018-10-07T23:27:42.166Z,99548.22
2018-10-07T23:30:16.496Z,99549.31
2018-10-07T23:33:01.224Z,99560.77
2018-10-07T23:35:41.903Z,99559.77
2018-10-07T23:38:16.521Z,99554.94
2018-10-07T23:40:52.437Z,99557.87
2018-10-07T23:43:27.000Z,99549.41
2018-10-07T23:46:01.560Z,99560.84
2018-10-07T23:48:36.402Z,99559.53
2018-10-07T23:51:11.498Z,99557.89
2018-10-07T23:53:46.058Z,99557.53
2018-10-07T23:56:20.709Z,99550.43
2018-10-07T23:58:55.240Z,99560.22
